Latest Coastal Weather Observations for Lihou Reef Lighthouse

IDQ60701

Issued at 5:12 pm EST Tuesday 26 May 2020 (issued every 10 minutes, with the page automatically refreshed every 10 minutes)

About coastal observations | Map of coastal stations | Coastal observations for QLD | Marine services | Other Formats
Station Details ID: 200880 Name: LIHOU REEF LIGHTHOUSE Lat: -17.13 Lon: 152.15 Height: 10.26 m
Data from the previous 72 hours. | See also: Recent months at Lihou Reef Lighthouse
Date/Time
EST
Wind Sea
Height
m
Swell Vis
km
Cloud Weather Temp
°C
Press
hPa
Rain since
9am
mm
Dir  Spd
kts
Gust
kts
Height
m
Period
s
Dir
26/05:00pm SE 13 15 - - - - - - - 22.7 1016.0 -
26/04:30pm SE 12 15 - - - - - - - 22.0 1015.8 -
26/04:00pm SE 11 14 - - - - - - - 22.2 1015.8 -
26/03:30pm SE 12 14 - - - - - - - 22.1 1015.8 -
26/03:00pm SE 13 15 - - - - - - - 21.5 1015.7 -
26/02:30pm SSE 13 17 - - - - - - - 21.9 1015.8 -
26/02:00pm SSE 13 16 - - - - - - - 22.8 1015.7 -
26/01:30pm SSE 11 14 - - - - - - - 23.4 1016.1 -
26/01:00pm SSE 11 14 - - - - - - - 23.2 1016.3 -
26/12:30pm SSE 12 15 - - - - - - - 23.6 1016.6 -
26/12:00pm SE 12 15 - - - - - - - 23.6 1017.0 -
26/11:30am SSE 13 15 - - - - - - - 23.7 1017.4 -
26/11:00am SSE 15 18 - - - - - - - 23.6 1017.4 -
26/10:30am SSE 14 17 - - - - - - - 23.6 1018.0 -
26/10:00am SSE 13 16 - - - - - - - 23.5 1018.2 -
26/09:30am SSE 13 15 - - - - - - - 23.3 1018.4 -
26/09:00am SSE 13 16 - - - - - - - 23.1 1018.2 -
26/08:30am SE 13 17 - - - - - - - 23.0 1018.2 -
26/08:00am SE 13 16 - - - - - - - 23.0 1018.0 -
26/07:30am SSE 13 16 - - - - - - - 22.9 1017.6 -
26/07:00am SE 13 16 - - - - - - - 22.5 1017.4 -
26/06:30am SE 14 18 - - - - - - - 22.4 1017.3 -
26/06:00am SE 11 14 - - - - - - - 22.6 1017.0 -
26/05:30am SE 11 14 - - - - - - - 22.3 1016.7 -
26/05:00am SE 11 14 - - - - - - - 21.8 1016.4 -
26/04:30am SE 10 12 - - - - - - - 21.5 1016.5 -
26/04:00am SE 11 14 - - - - - - - 21.6 1016.4 -
26/03:30am SE 11 13 - - - - - - - 20.8 1016.4 -
26/03:00am SE 11 14 - - - - - - - 20.6 1016.6 -
26/02:30am SE 11 13 - - - - - - - 20.6 1016.7 -
26/02:00am SE 12 17 - - - - - - - 20.3 1016.8 -
26/01:30am SE 10 15 - - - - - - - 20.0 1017.2 -
26/01:00am SE 10 13 - - - - - - - 20.1 1017.4 -
26/12:30am SE 10 13 - - - - - - - 20.1 1017.3 -
26/12:00am SE 8 10 - - - - - - - 20.1 1017.7 -
 
Date/Time
EST
Wind Sea
Height
m
Swell Vis
km
Cloud Weather Temp
°C
Press
hPa
Rain since
9am
mm
Dir  Spd
kts
Gust
kts
Height
m
Period
s
Dir
25/11:30pm ESE 7 9 - - - - - - - 20.0 1017.8 -
25/11:00pm SE 9 12 - - - - - - - 20.4 1017.7 -
25/10:30pm SE 12 15 - - - - - - - 20.4 1017.4 -
25/10:00pm ESE 12 16 - - - - - - - 19.7 1017.4 -
25/09:30pm ESE 10 13 - - - - - - - 19.4 1017.8 -
25/09:00pm SE 7 9 - - - - - - - 19.2 1018.1 -
25/08:30pm SSE 10 13 - - - - - - - 19.4 1017.9 -
25/08:00pm SSE 11 13 - - - - - - - 19.9 1017.6 -
25/07:30pm SSE 7 10 - - - - - - - 19.9 1017.7 -
25/07:00pm ESE 7 10 - - - - - - - 20.4 1017.3 -
25/06:30pm E 4 12 - - - - - - - 21.5 1016.9 -
25/06:00pm SE 7 9 - - - - - - - 23.1 1016.3 -
25/05:30pm S 10 13 - - - - - - - 23.0 1015.6 -
25/05:00pm SSE 10 12 - - - - - - - 23.2 1015.3 -
25/04:30pm SSE 10 13 - - - - - - - 23.4 1015.0 -
25/04:00pm SSE 11 14 - - - - - - - 23.1 1014.9 -
25/03:30pm SSE 11 14 - - - - - - - 23.0 1014.7 -
25/03:00pm S 12 15 - - - - - - - 23.1 1014.8 -
25/02:30pm S 11 13 - - - - - - - 23.1 1015.0 -
25/02:00pm S 10 13 - - - - - - - 23.0 1015.2 -
25/01:30pm SSE 9 11 - - - - - - - 23.0 1015.4 -
25/01:00pm SSE 9 13 - - - - - - - 22.6 1015.8 -
25/12:30pm SSE 11 14 - - - - - - - 23.0 1016.0 -
25/12:00pm SSE 11 14 - - - - - - - 22.9 1016.2 -
25/11:30am S 11 14 - - - - - - - 22.8 1016.2 -
25/11:00am S 12 15 - - - - - - - 22.6 1016.7 -
25/10:30am S 13 17 - - - - - - - 22.5 1016.8 -
25/10:00am S 9 12 - - - - - - - 22.9 1017.2 -
25/09:30am S 8 11 - - - - - - - 23.1 1017.1 -
25/09:00am SSE 9 11 - - - - - - - 23.1 1016.8 -
25/08:30am SSE 10 13 - - - - - - - 23.2 1016.5 -
25/08:00am S 9 11 - - - - - - - 23.3 1015.8 -
25/07:30am S 10 14 - - - - - - - 23.3 1016.1 -
25/07:00am S 10 13 - - - - - - - 23.2 1015.6 -
25/06:30am SSE 8 11 - - - - - - - 23.1 1015.2 -
25/06:00am S 12 15 - - - - - - - 23.1 1015.3 -
25/05:30am S 12 15 - - - - - - - 23.0 1015.0 -
25/05:00am S 12 14 - - - - - - - 22.9 1014.6 -
25/04:30am S 12 15 - - - - - - - 22.8 1014.4 -
25/04:00am S 13 15 - - - - - - - 23.0 1014.4 -
25/03:30am S 13 17 - - - - - - - 23.1 1014.1 -
25/03:00am S 12 15 - - - - - - - 23.1 1014.4 -
25/02:30am S 13 15 - - - - - - - 23.2 1014.3 -
25/02:00am SSE 12 14 - - - - - - - 23.1 1014.1 -
25/01:30am S 11 16 - - - - - - - 23.1 1014.3 -
25/01:00am S 12 16 - - - - - - - 23.2 1014.9 -
25/12:30am S 11 14 - - - - - - - 23.1 1015.2 -
25/12:00am S 11 17 - - - - - - - 23.0 1015.0 -
 
Date/Time
EST
Wind Sea
Height
m
Swell Vis
km
Cloud Weather Temp
°C
Press
hPa
Rain since
9am
mm
Dir  Spd
kts
Gust
kts
Height
m
Period
s
Dir
24/11:30pm S 14 16 - - - - - - - 23.0 1014.9 -
24/11:00pm S 12 16 - - - - - - - 22.9 1015.2 -
24/10:30pm S 11 13 - - - - - - - 22.8 1015.2 -
24/10:00pm S 12 15 - - - - - - - 22.9 1015.1 -
24/09:30pm SSE 12 16 - - - - - - - 22.7 1015.0 -
24/09:00pm S 7 11 - - - - - - - 22.4 1014.9 -
24/08:30pm SSE 8 11 - - - - - - - 22.4 1014.8 -
24/08:00pm S 11 13 - - - - - - - 22.1 1015.0 -
24/07:30pm SSE 10 14 - - - - - - - 22.5 1014.6 -
24/07:00pm SSE 11 14 - - - - - - - 22.4 1014.0 -
24/06:30pm SSE 10 13 - - - - - - - 22.6 1014.3 -
24/06:00pm SSE 11 14 - - - - - - - 22.3 1013.6 -
24/05:30pm S 9 13 - - - - - - - 22.1 1014.0 -
24/05:00pm S 8 10 - - - - - - - 21.8 1013.3 -
24/04:30pm S 8 10 - - - - - - - 21.7 1012.9 -
24/04:00pm S 6 10 - - - - - - - 22.0 1012.8 -
24/03:30pm S 5 7 - - - - - - - 21.7 1012.0 -
24/03:00pm S 7 9 - - - - - - - 21.3 1011.4 -
24/02:30pm ESE 2 6 - - - - - - - 20.7 1011.5 -
24/02:00pm S 3 5 - - - - - - - 20.2 1012.4 -
24/01:30pm SSW 2 4 - - - - - - - 20.0 1013.1 -
24/01:00pm SSE 4 6 - - - - - - - 19.9 1013.4 -
24/12:30pm SSE 3 5 - - - - - - - 19.8 1013.7 -
24/12:00pm SSE 4 6 - - - - - - - 19.9 1013.8 -
24/11:30am SSE 6 7 - - - - - - - 19.7 1014.4 -
24/11:00am SSE 5 7 - - - - - - - 19.7 1014.4 -
24/10:30am S 7 9 - - - - - - - 19.4 1014.6 -
24/10:00am SW 6 11 - - - - - - - 19.5 1014.8 -
24/09:30am SSW 8 10 - - - - - - - 19.2 1015.2 -
24/09:00am SW 10 13 - - - - - - - 19.3 1015.0 -
24/08:30am SSW 12 16 - - - - - - - 19.4 1015.0 -
24/08:00am SSW 9 14 - - - - - - - 19.8 1014.8 -
24/07:30am SSW 9 15 - - - - - - - 20.0 1014.2 -
24/07:00am SSW 5 8 - - - - - - - 19.9 1014.2 -
24/06:30am SSW 8 12 - - - - - - - 19.9 1013.9 -
24/06:00am S 14 17 - - - - - - - 20.0 1013.6 -
24/05:30am S 14 18 - - - - - - - 19.9 1012.5 -
24/05:00am S 17 19 - - - - - - - 20.0 1012.2 -
24/04:30am S 17 24 - - - - - - - 19.9 1012.1 -
24/04:00am SSW 16 22 - - - - - - - 20.6 1012.2 -
24/03:30am SSW 14 24 - - - - - - - 20.3 1012.2 -
24/03:00am SSW 19 27 - - - - - - - 20.8 1012.1 -
24/02:30am SSW 13 18 - - - - - - - 21.1 1011.8 -
24/02:00am SSW 16 27 - - - - - - - 21.3 1011.9 -
24/01:37am SSW 17 28 - - - - - - - 21.4 1011.9 -
24/01:30am SSW 18 28 - - - - - - - 21.7 1012.0 -
24/01:26am SSW 18 29 - - - - - - - 21.2 1012.0 -
24/01:00am S 22 30 - - - - - - - 21.0 1012.6 -
24/12:30am S 23 30 - - - - - - - 21.1 1012.9 -
24/12:00am S 22 31 - - - - - - - 20.8 1013.2 -
 
Date/Time
EST
Wind Sea
Height
m
Swell Vis
km
Cloud Weather Temp
°C
Press
hPa
Rain since
9am
mm
Dir  Spd
kts
Gust
kts
Height
m
Period
s
Dir
23/11:51pm SSW 20 31 - - - - - - - 20.4 1013.4 -
23/11:30pm S 25 30 - - - - - - - 21.0 1013.7 -
23/11:00pm SSW 20 35 - - - - - - - 20.8 1014.0 -
23/10:30pm SSW 16 27 - - - - - - - 21.1 1013.9 -
23/10:00pm SSW 19 30 - - - - - - - 20.8 1013.8 -
23/09:32pm SSW 21 32 - - - - - - - 20.8 1013.8 -
23/09:30pm SSW 22 32 - - - - - - - 20.6 1013.7 -
23/09:28pm S 22 33 - - - - - - - 21.0 1013.8 -
23/09:00pm S 24 33 - - - - - - - 20.6 1013.4 -
23/08:30pm S 25 30 - - - - - - - 21.3 1013.5 -
23/08:00pm S 22 27 - - - - - - - 21.4 1012.8 -
23/07:30pm S 20 29 - - - - - - - 21.3 1012.6 -
23/07:00pm S 24 29 - - - - - - - 21.1 1012.5 -
23/06:30pm S 22 29 - - - - - - - 21.4 1011.7 -
23/06:13pm S 21 29 - - - - - - - 21.5 1011.5 -
23/06:00pm SSW 11 17 - - - - - - - 21.7 1011.5 -
23/05:30pm SSW 16 23 - - - - - - - 21.9 1011.3 -

Other formats

Comma delimited format used in spreadsheet applications
http://www.bom.gov.au/fwo/IDQ60701/IDQ60701.94293.axf

JavaScript Object Notation format (JSON) in row-major order
http://www.bom.gov.au/fwo/IDQ60701/IDQ60701.94293.json

Data quality

Most of these data are generated automatically and are frequently updated. Quality checks on data are not normally performed. It is possible for incorrect values to appear. Refer to information at About Latest Weather Observations and please check the disclaimer before using these data.